createdAt,value
2018-03-20T00:00:38.392Z,14.13
2018-03-20T00:03:06.002Z,12.70
2018-03-20T00:05:33.579Z,13.53
2018-03-20T00:08:01.158Z,12.90
2018-03-20T00:10:28.700Z,14.20
2018-03-20T00:12:56.294Z,14.57
2018-03-20T00:15:23.880Z,13.80
2018-03-20T00:17:51.447Z,14.73
2018-03-20T00:20:19.052Z,13.30
2018-03-20T00:22:46.619Z,14.33
2018-03-20T00:25:14.196Z,13.37
2018-03-20T00:27:41.843Z,14.40
2018-03-20T00:30:09.463Z,13.73
2018-03-20T00:32:37.051Z,14.07
2018-03-20T00:35:04.613Z,14.83
2018-03-20T00:37:32.173Z,14.30
2018-03-20T00:39:59.694Z,13.70
2018-03-20T00:42:27.266Z,15.17
2018-03-20T00:44:54.819Z,23.20
2018-03-20T00:47:22.362Z,17.33
2018-03-20T00:49:50.676Z,15.07
2018-03-20T00:52:18.235Z,14.70
2018-03-20T00:54:45.772Z,15.53
2018-03-20T00:57:13.360Z,14.60
2018-03-20T00:59:40.911Z,15.60
2018-03-20T01:02:08.436Z,14.67
2018-03-20T01:04:36.001Z,13.83
2018-03-20T01:07:03.588Z,13.20
2018-03-20T01:09:31.152Z,14.80
2018-03-20T01:11:58.734Z,14.90
2018-03-20T01:14:26.271Z,13.80
2018-03-20T01:16:53.894Z,14.13
2018-03-20T01:19:21.457Z,15.50
2018-03-20T01:21:49.793Z,14.50
2018-03-20T01:24:17.364Z,14.43
2018-03-20T01:26:44.932Z,14.63
2018-03-20T01:29:12.513Z,14.47
2018-03-20T01:31:40.827Z,15.20
2018-03-20T01:34:08.393Z,13.90
2018-03-20T01:36:35.924Z,14.40
2018-03-20T01:39:03.557Z,14.30
2018-03-20T01:41:31.118Z,15.13
2018-03-20T01:43:58.675Z,15.43
2018-03-20T01:46:26.233Z,16.13
2018-03-20T01:48:53.805Z,16.27
2018-03-20T01:51:22.118Z,15.80
2018-03-20T01:53:49.691Z,14.83
2018-03-20T01:56:17.250Z,16.90
2018-03-20T01:58:44.856Z,15.67
2018-03-20T02:01:12.431Z,15.40
2018-03-20T02:03:39.980Z,14.40
2018-03-20T02:06:08.282Z,14.50
2018-03-20T02:08:36.082Z,15.90
2018-03-20T02:11:03.656Z,15.77
2018-03-20T02:13:31.285Z,15.53
2018-03-20T02:15:58.799Z,16.17
2018-03-20T02:18:27.159Z,16.33
2018-03-20T02:20:54.731Z,15.00
2018-03-20T02:23:22.300Z,15.07
2018-03-20T02:25:49.856Z,16.63
2018-03-20T02:28:17.393Z,15.67
2018-03-20T02:30:44.977Z,15.50
2018-03-20T02:33:12.539Z,15.33
2018-03-20T02:35:40.880Z,15.03
2018-03-20T02:38:08.423Z,15.80
2018-03-20T02:40:35.986Z,15.90
2018-03-20T02:43:03.588Z,15.33
2018-03-20T02:45:31.925Z,15.03
2018-03-20T02:47:59.514Z,16.20
2018-03-20T02:50:27.087Z,16.50
2018-03-20T02:52:54.676Z,15.57
2018-03-20T02:55:22.273Z,15.03
2018-03-20T02:57:50.137Z,16.43
2018-03-20T03:00:17.899Z,15.50
2018-03-20T03:02:45.464Z,15.83
2018-03-20T03:05:13.044Z,15.70
2018-03-20T03:07:40.588Z,15.67
2018-03-20T03:10:08.156Z,15.50
2018-03-20T03:12:35.694Z,16.50
2018-03-20T03:15:03.273Z,17.03
2018-03-20T03:17:31.175Z,16.60
2018-03-20T03:19:58.893Z,15.53
2018-03-20T03:22:26.492Z,15.87
2018-03-20T03:24:54.030Z,16.53
2018-03-20T03:27:21.564Z,16.93
2018-03-20T03:29:49.149Z,17.50
2018-03-20T03:32:16.709Z,17.43
2018-03-20T03:34:44.268Z,16.97
2018-03-20T03:37:11.834Z,17.43
2018-03-20T03:39:40.165Z,16.93
2018-03-20T03:42:07.733Z,16.37
2018-03-20T03:44:35.320Z,16.90
2018-03-20T03:47:02.914Z,16.73
2018-03-20T03:49:30.450Z,16.93
2018-03-20T03:51:58.186Z,15.93
2018-03-20T03:54:25.758Z,17.07
2018-03-20T03:56:53.305Z,16.87
2018-03-20T03:59:20.874Z,17.50
2018-03-20T04:01:48.487Z,17.13
2018-03-20T04:04:16.158Z,16.47
2018-03-20T04:06:44.511Z,16.93
2018-03-20T04:09:12.844Z,17.50
2018-03-20T04:11:40.437Z,16.00
2018-03-20T04:14:07.977Z,16.73
2018-03-20T04:16:35.552Z,17.37
2018-03-20T04:19:03.158Z,15.50
2018-03-20T04:21:30.721Z,16.43
2018-03-20T04:23:58.277Z,16.27
2018-03-20T04:26:26.700Z,16.00
2018-03-20T04:28:54.265Z,16.37
2018-03-20T04:31:21.874Z,16.33
2018-03-20T04:33:50.201Z,16.57
2018-03-20T04:36:17.842Z,15.33
2018-03-20T04:38:45.436Z,16.87
2018-03-20T04:41:13.016Z,16.63
2018-03-20T04:43:40.537Z,16.63
2018-03-20T04:46:08.161Z,17.07
2018-03-20T04:48:35.705Z,18.50
2018-03-20T04:51:03.326Z,17.20
2018-03-20T04:53:30.883Z,17.10
2018-03-20T04:55:58.497Z,18.50
2018-03-20T04:58:26.065Z,17.87
2018-03-20T05:00:53.635Z,18.37
2018-03-20T05:03:21.214Z,18.30
2018-03-20T05:05:48.874Z,17.37
2018-03-20T05:08:16.413Z,17.77
2018-03-20T05:10:44.015Z,17.20
2018-03-20T05:13:11.586Z,17.83
2018-03-20T05:15:39.179Z,17.43
2018-03-20T05:18:07.548Z,18.13
2018-03-20T05:24:00.832Z,17.60
2018-03-20T05:26:29.172Z,17.27
2018-03-20T05:28:56.778Z,18.70
2018-03-20T05:31:24.335Z,18.47
2018-03-20T05:33:52.301Z,17.37
2018-03-20T05:36:19.885Z,18.37
2018-03-20T05:38:47.473Z,18.80
2018-03-20T05:41:15.078Z,19.30
2018-03-20T05:43:42.636Z,19.40
2018-03-20T05:46:11.090Z,18.17
2018-03-20T05:48:44.329Z,20.23
2018-03-20T05:51:19.374Z,18.13
2018-03-20T05:53:46.949Z,19.40
2018-03-20T05:56:14.495Z,18.03
2018-03-20T05:58:42.054Z,18.47
2018-03-20T06:01:09.592Z,17.63
2018-03-20T06:03:37.249Z,19.33
2018-03-20T06:06:04.830Z,17.37
2018-03-20T06:08:32.489Z,18.27
2018-03-20T06:11:00.051Z,17.20
2018-03-20T06:13:27.689Z,17.90
2018-03-20T06:15:55.281Z,19.07
2018-03-20T06:18:22.861Z,17.57
2018-03-20T06:20:50.464Z,17.43
2018-03-20T06:23:18.783Z,17.37
2018-03-20T06:25:46.306Z,17.13
2018-03-20T06:28:14.697Z,18.80
2018-03-20T06:30:43.025Z,19.43
2018-03-20T06:33:11.424Z,18.40
2018-03-20T06:35:38.996Z,18.07
2018-03-20T06:38:06.574Z,19.33
2018-03-20T06:40:34.731Z,17.53
2018-03-20T06:43:03.094Z,18.00
2018-03-20T06:45:30.670Z,20.40
2018-03-20T06:47:58.333Z,18.70
2018-03-20T06:50:25.914Z,19.80
2018-03-20T06:52:53.559Z,19.00
2018-03-20T06:55:21.086Z,18.50
2018-03-20T06:57:48.746Z,17.77
2018-03-20T07:00:16.332Z,18.20
2018-03-20T07:02:44.066Z,18.70
2018-03-20T07:05:11.609Z,18.33
2018-03-20T07:07:39.192Z,16.87
2018-03-20T07:10:06.736Z,17.50
2018-03-20T07:12:34.320Z,17.67
2018-03-20T07:15:01.880Z,18.83
2018-03-20T07:17:29.466Z,19.40
2018-03-20T07:19:57.005Z,18.80
2018-03-20T07:22:24.935Z,17.90
2018-03-20T07:24:52.500Z,18.13
2018-03-20T07:27:20.103Z,17.53
2018-03-20T07:29:47.948Z,17.23
2018-03-20T07:32:16.521Z,17.83
2018-03-20T07:34:44.940Z,16.07
2018-03-20T07:37:13.323Z,15.07
2018-03-20T07:39:41.697Z,15.50
2018-03-20T07:42:09.881Z,16.43
2018-03-20T07:44:37.576Z,16.40
2018-03-20T07:47:05.176Z,17.33
2018-03-20T07:49:33.641Z,17.03
2018-03-20T07:52:02.618Z,17.57
2018-03-20T07:54:30.283Z,16.90
2018-03-20T07:56:57.889Z,16.40
2018-03-20T07:59:25.467Z,16.50
2018-03-20T08:01:53.118Z,16.57
2018-03-20T08:04:21.494Z,16.53
2018-03-20T08:06:49.818Z,16.87
2018-03-20T08:09:17.493Z,16.00
2018-03-20T08:11:45.045Z,15.97
2018-03-20T08:14:12.637Z,16.33
2018-03-20T08:16:40.209Z,15.60
2018-03-20T08:19:07.945Z,16.73
2018-03-20T08:21:35.592Z,16.80
2018-03-20T08:24:03.372Z,16.17
2018-03-20T08:26:31.124Z,16.33
2018-03-20T08:28:58.682Z,15.97
2018-03-20T08:31:26.298Z,16.23
2018-03-20T08:33:53.885Z,15.13
2018-03-20T08:36:21.460Z,15.13
2018-03-20T08:38:49.018Z,16.37
2018-03-20T08:41:16.536Z,15.80
2018-03-20T08:43:45.025Z,16.37
2018-03-20T08:46:12.660Z,16.17
2018-03-20T08:48:40.197Z,16.07
2018-03-20T08:51:07.783Z,16.50
2018-03-20T08:53:35.570Z,15.23
2018-03-20T08:56:03.928Z,15.90
2018-03-20T08:58:31.750Z,16.50
2018-03-20T09:00:59.353Z,17.13
2018-03-20T09:03:26.978Z,16.80
2018-03-20T09:05:54.623Z,16.13
2018-03-20T09:08:22.221Z,16.70
2018-03-20T09:10:49.773Z,16.03
2018-03-20T09:13:17.376Z,16.00
2018-03-20T09:15:45.721Z,15.63
2018-03-20T09:18:13.409Z,15.87
2018-03-20T09:20:41.019Z,16.07
2018-03-20T09:23:08.698Z,15.97
2018-03-20T09:25:36.277Z,14.23
2018-03-20T09:28:03.917Z,14.57
2018-03-20T09:30:31.559Z,14.70
2018-03-20T09:32:59.189Z,13.97
2018-03-20T09:35:28.130Z,13.53
2018-03-20T09:37:55.709Z,13.53
2018-03-20T09:40:23.341Z,13.83
2018-03-20T09:42:50.915Z,14.07
2018-03-20T09:45:18.533Z,13.57
2018-03-20T09:47:46.248Z,13.73
2018-03-20T09:50:14.621Z,15.03
2018-03-20T09:52:42.242Z,14.27
2018-03-20T09:55:09.837Z,13.83
2018-03-20T09:57:37.416Z,14.13
2018-03-20T10:00:06.483Z,14.07
2018-03-20T10:02:34.788Z,13.53
2018-03-20T10:05:02.462Z,13.37
2018-03-20T10:07:30.097Z,14.60
2018-03-20T10:09:57.685Z,13.13
2018-03-20T10:12:25.586Z,13.93
2018-03-20T10:14:53.193Z,15.53
2018-03-20T10:17:20.864Z,14.57
2018-03-20T10:19:48.458Z,13.93
2018-03-20T10:22:16.154Z,13.20
2018-03-20T10:24:43.747Z,12.63
2018-03-20T10:27:11.382Z,14.17
2018-03-20T10:29:39.760Z,10.53
2018-03-20T10:32:07.368Z,10.37
2018-03-20T10:34:34.987Z,10.50
2018-03-20T10:37:02.543Z,10.73
2018-03-20T10:39:30.951Z,10.60
2018-03-20T10:41:58.612Z,10.07
2018-03-20T10:44:26.990Z,11.20
2018-03-20T10:46:54.589Z,9.10
2018-03-20T10:49:22.233Z,12.17
2018-03-20T10:51:49.825Z,10.37
2018-03-20T10:54:18.572Z,10.00
2018-03-20T10:56:46.170Z,9.53
2018-03-20T10:59:13.876Z,8.73
2018-03-20T11:01:46.982Z,9.03
2018-03-20T11:04:14.584Z,10.23
2018-03-20T11:06:42.167Z,9.07
2018-03-20T11:09:09.754Z,9.13
2018-03-20T11:11:37.323Z,9.03
2018-03-20T11:14:04.956Z,8.97
2018-03-20T11:16:33.098Z,9.07
2018-03-20T11:19:00.726Z,9.87
2018-03-20T11:21:29.109Z,10.17
2018-03-20T11:23:57.464Z,9.27
2018-03-20T11:26:25.028Z,8.17
2018-03-20T11:28:52.653Z,8.97
2018-03-20T11:31:20.230Z,7.37
2018-03-20T11:33:47.805Z,7.60
2018-03-20T11:36:15.405Z,8.23
2018-03-20T11:38:42.985Z,8.03
2018-03-20T11:41:10.576Z,7.70
2018-03-20T11:43:38.177Z,9.37
2018-03-20T11:46:05.896Z,8.73
2018-03-20T11:48:33.514Z,8.10
2018-03-20T11:51:01.424Z,8.63
2018-03-20T11:53:29.003Z,8.47
2018-03-20T11:55:56.662Z,7.97
2018-03-20T11:58:24.295Z,8.20
2018-03-20T12:00:51.964Z,7.93
2018-03-20T12:03:19.729Z,8.10
2018-03-20T12:05:47.481Z,9.23
2018-03-20T12:08:26.893Z,8.93
2018-03-20T12:10:54.485Z,8.07
2018-03-20T12:13:22.068Z,8.97
2018-03-20T12:15:49.671Z,9.80
2018-03-20T12:18:17.373Z,10.47
2018-03-20T12:20:44.949Z,9.67
2018-03-20T12:23:12.508Z,9.77
2018-03-20T12:25:40.229Z,10.30
2018-03-20T12:28:07.839Z,10.70
2018-03-20T12:30:36.257Z,11.07
2018-03-20T12:33:04.114Z,11.17
2018-03-20T12:35:32.508Z,11.60
2018-03-20T12:38:00.119Z,10.53
2018-03-20T12:40:27.693Z,10.50
2018-03-20T12:42:55.242Z,10.80
2018-03-20T12:45:22.804Z,11.50
2018-03-20T12:47:50.464Z,9.60
2018-03-20T12:50:18.002Z,9.87
2018-03-20T12:52:45.585Z,9.87
2018-03-20T12:55:14.169Z,9.30
2018-03-20T12:57:41.814Z,9.43
2018-03-20T13:00:09.368Z,8.90
2018-03-20T13:02:37.057Z,10.37
2018-03-20T13:05:04.726Z,9.70
2018-03-20T13:07:32.359Z,8.90
2018-03-20T13:09:59.962Z,10.13
2018-03-20T13:12:28.337Z,9.60
2018-03-20T13:14:57.513Z,9.07
2018-03-20T13:17:25.211Z,9.27
2018-03-20T13:19:52.842Z,9.07
2018-03-20T13:22:21.576Z,8.27
2018-03-20T13:24:49.174Z,8.53
2018-03-20T13:27:16.882Z,8.17
2018-03-20T13:29:44.445Z,8.00
2018-03-20T13:32:12.121Z,8.60
2018-03-20T13:34:39.726Z,7.27
2018-03-20T13:37:07.333Z,7.83
2018-03-20T13:39:35.821Z,7.43
2018-03-20T13:42:03.663Z,8.60
2018-03-20T13:44:31.280Z,8.20
2018-03-20T13:46:58.958Z,8.13
2018-03-20T13:49:26.530Z,8.27
2018-03-20T13:51:54.251Z,9.60
2018-03-20T13:54:22.268Z,8.67
2018-03-20T13:56:49.826Z,7.97
2018-03-20T13:59:17.493Z,7.87
2018-03-20T14:01:45.071Z,7.30
2018-03-20T14:04:12.633Z,8.10
2018-03-20T14:06:40.979Z,8.17
2018-03-20T14:09:08.910Z,8.50
2018-03-20T14:11:36.534Z,9.20
2018-03-20T14:14:04.896Z,8.60
2018-03-20T14:16:32.447Z,8.77
2018-03-20T14:19:00.034Z,8.73
2018-03-20T14:21:27.641Z,8.53
2018-03-20T14:23:55.299Z,8.70
2018-03-20T14:26:23.952Z,9.90
2018-03-20T14:28:51.521Z,9.40
2018-03-20T14:31:19.175Z,8.57
2018-03-20T14:33:46.816Z,8.27
2018-03-20T14:36:14.386Z,8.33
2018-03-20T14:38:41.970Z,8.33
2018-03-20T14:41:09.523Z,9.23
2018-03-20T14:43:37.160Z,9.17
2018-03-20T14:46:04.693Z,9.10
2018-03-20T14:48:32.274Z,9.70
2018-03-20T14:50:59.919Z,8.90
2018-03-20T14:53:33.200Z,8.40
2018-03-20T14:56:00.791Z,8.33
2018-03-20T14:58:28.485Z,8.47
2018-03-20T15:00:56.078Z,9.03
2018-03-20T15:03:23.665Z,8.70
2018-03-20T15:05:51.319Z,9.43
2018-03-20T15:08:18.963Z,9.13
2018-03-20T15:10:46.566Z,9.97
2018-03-20T15:13:14.955Z,10.83
2018-03-20T15:15:43.302Z,11.13
2018-03-20T15:18:10.917Z,10.47
2018-03-20T15:20:38.468Z,10.03
2018-03-20T15:23:06.212Z,10.60
2018-03-20T15:25:34.027Z,10.77
2018-03-20T15:28:01.902Z,12.07
2018-03-20T15:30:29.564Z,10.73
2018-03-20T15:32:57.146Z,12.37
2018-03-20T15:35:24.724Z,12.10
2018-03-20T15:37:52.367Z,12.27
2018-03-20T15:40:19.985Z,11.60
2018-03-20T15:42:47.588Z,11.17
2018-03-20T15:45:15.176Z,13.30
2018-03-20T15:47:42.782Z,11.83
2018-03-20T15:50:10.347Z,12.67
2018-03-20T15:52:38.003Z,13.00
2018-03-20T15:55:05.591Z,12.47
2018-03-20T15:57:33.493Z,11.93
2018-03-20T16:00:01.983Z,11.00
2018-03-20T16:02:29.683Z,12.73
2018-03-20T16:04:57.410Z,12.07
2018-03-20T16:07:25.799Z,11.97
2018-03-20T16:09:53.351Z,10.97
2018-03-20T16:12:21.063Z,12.57
2018-03-20T16:14:48.737Z,11.47
2018-03-20T16:17:16.426Z,11.03
2018-03-20T16:19:44.118Z,10.63
2018-03-20T16:22:11.710Z,10.57
2018-03-20T16:24:39.634Z,10.97
2018-03-20T16:27:07.245Z,12.00
2018-03-20T16:29:36.025Z,10.90
2018-03-20T16:32:03.636Z,10.60
2018-03-20T16:34:31.345Z,11.13
2018-03-20T16:36:58.997Z,11.23
2018-03-20T16:39:26.644Z,17.50
2018-03-20T16:41:54.242Z,12.90
2018-03-20T16:44:21.845Z,11.00
2018-03-20T16:46:49.477Z,11.33
2018-03-20T16:49:17.064Z,10.93
2018-03-20T16:51:44.603Z,11.07
2018-03-20T16:54:12.188Z,10.77
2018-03-20T16:56:40.578Z,11.70
2018-03-20T16:59:08.155Z,10.73
2018-03-20T17:01:35.769Z,11.47
2018-03-20T17:04:03.517Z,12.80
2018-03-20T17:06:31.117Z,12.20
2018-03-20T17:08:58.831Z,12.90
2018-03-20T17:11:26.407Z,13.87
2018-03-20T17:13:53.975Z,13.17
2018-03-20T17:16:21.540Z,12.80
2018-03-20T17:18:49.156Z,11.83
2018-03-20T17:21:16.706Z,10.83
2018-03-20T17:23:44.309Z,13.07
2018-03-20T17:26:11.937Z,13.27
2018-03-20T17:28:39.499Z,13.17
2018-03-20T17:31:07.165Z,13.17
2018-03-20T17:33:34.731Z,11.93
2018-03-20T17:36:02.470Z,11.27
2018-03-20T17:38:30.031Z,11.73
2018-03-20T17:40:57.650Z,10.90
2018-03-20T17:43:25.230Z,12.83
2018-03-20T17:45:53.598Z,12.00
2018-03-20T17:48:21.946Z,11.90
2018-03-20T17:50:50.296Z,11.30
2018-03-20T17:53:17.892Z,12.10
2018-03-20T17:55:46.058Z,11.50
2018-03-20T17:58:13.619Z,12.20
2018-03-20T18:00:41.205Z,11.70
2018-03-20T18:03:08.825Z,12.97
2018-03-20T18:05:36.369Z,13.00
2018-03-20T18:08:03.930Z,12.70
2018-03-20T18:10:31.474Z,11.63
2018-03-20T18:12:59.140Z,13.30
2018-03-20T18:15:26.748Z,12.53
2018-03-20T18:17:54.333Z,11.90
2018-03-20T18:20:21.892Z,13.20
2018-03-20T18:22:49.477Z,12.47
2018-03-20T18:25:17.065Z,11.90
2018-03-20T18:27:44.752Z,12.77
2018-03-20T18:30:12.430Z,13.43
2018-03-20T18:32:40.804Z,11.50
2018-03-20T18:35:09.135Z,13.60
2018-03-20T18:37:36.742Z,13.67
2018-03-20T18:40:04.339Z,12.67
2018-03-20T18:42:31.976Z,12.47
2018-03-20T18:45:00.456Z,12.63
2018-03-20T18:47:28.077Z,12.43
2018-03-20T18:49:55.668Z,11.90
2018-03-20T18:52:23.257Z,12.80
2018-03-20T18:54:50.829Z,12.60
2018-03-20T18:57:18.388Z,12.90
2018-03-20T18:59:45.965Z,12.93
2018-03-20T19:02:13.529Z,12.07
2018-03-20T19:04:41.104Z,13.07
2018-03-20T19:07:08.657Z,12.40
2018-03-20T19:09:36.264Z,12.23
2018-03-20T19:12:03.820Z,12.97
2018-03-20T19:14:32.230Z,14.37
2018-03-20T19:16:59.820Z,12.97
2018-03-20T19:19:27.424Z,11.90
2018-03-20T19:21:55.743Z,12.83
2018-03-20T19:24:23.313Z,13.57
2018-03-20T19:26:50.859Z,13.17
2018-03-20T19:29:18.475Z,12.43
2018-03-20T19:31:46.784Z,13.03
2018-03-20T19:34:14.345Z,13.30
2018-03-20T19:36:41.893Z,13.27
2018-03-20T19:39:09.464Z,13.90
2018-03-20T19:41:37.039Z,13.67
2018-03-20T19:44:04.699Z,12.63
2018-03-20T19:46:32.361Z,12.97
2018-03-20T19:48:59.920Z,14.80
2018-03-20T19:51:27.593Z,14.07
2018-03-20T19:53:55.208Z,13.17
2018-03-20T19:56:22.761Z,13.37
2018-03-20T19:58:50.322Z,13.53
2018-03-20T20:01:17.993Z,13.77
2018-03-20T20:03:45.642Z,14.17
2018-03-20T20:06:14.044Z,14.90
2018-03-20T20:08:42.459Z,14.30
2018-03-20T20:11:10.128Z,13.93
2018-03-20T20:13:37.692Z,15.03
2018-03-20T20:16:05.866Z,13.40
2018-03-20T20:18:33.538Z,15.40
2018-03-20T20:21:01.093Z,13.83
2018-03-20T20:23:28.736Z,14.37
2018-03-20T20:25:56.313Z,15.43
2018-03-20T20:28:23.869Z,13.63
2018-03-20T20:30:51.720Z,14.97
2018-03-20T20:33:19.301Z,13.83
2018-03-20T20:35:46.843Z,14.37
2018-03-20T20:38:14.420Z,13.93
2018-03-20T20:40:42.056Z,14.70
2018-03-20T20:43:09.800Z,14.53
2018-03-20T20:45:37.397Z,14.07
2018-03-20T20:48:05.005Z,14.03
2018-03-20T20:50:32.602Z,14.30
2018-03-20T20:53:00.181Z,13.87
2018-03-20T20:55:27.742Z,14.97
2018-03-20T20:57:55.299Z,13.97
2018-03-20T21:00:22.877Z,15.03
2018-03-20T21:02:50.492Z,14.60
2018-03-20T21:05:18.079Z,15.53
2018-03-20T21:07:45.675Z,14.83
2018-03-20T21:10:14.025Z,14.47
2018-03-20T21:12:41.607Z,14.10
2018-03-20T21:15:09.150Z,14.93
2018-03-20T21:17:36.704Z,14.27
2018-03-20T21:20:04.299Z,13.73
2018-03-20T21:22:31.932Z,14.30
2018-03-20T21:24:59.605Z,13.53
2018-03-20T21:27:27.197Z,13.90
2018-03-20T21:29:54.777Z,12.67
2018-03-20T21:32:22.329Z,13.27
2018-03-20T21:34:49.934Z,12.43
2018-03-20T21:37:17.475Z,11.77
2018-03-20T21:39:45.056Z,13.13
2018-03-20T21:42:12.614Z,11.90
2018-03-20T21:44:40.225Z,11.30
2018-03-20T21:47:07.818Z,12.93
2018-03-20T21:49:35.393Z,10.80
2018-03-20T21:52:02.936Z,10.90
2018-03-20T21:54:30.573Z,10.53
2018-03-20T21:56:58.238Z,11.10
2018-03-20T21:59:25.822Z,11.40
2018-03-20T22:01:53.384Z,10.70
2018-03-20T22:04:21.003Z,11.23
2018-03-20T22:06:48.591Z,10.23
2018-03-20T22:09:16.902Z,11.60
2018-03-20T22:11:44.493Z,10.07
2018-03-20T22:14:12.810Z,10.57
2018-03-20T22:16:40.373Z,10.23
2018-03-20T22:19:07.927Z,9.77
2018-03-20T22:21:35.525Z,10.80
2018-03-20T22:24:03.086Z,9.33
2018-03-20T22:26:30.708Z,10.30
2018-03-20T22:28:58.244Z,10.50
2018-03-20T22:31:25.824Z,10.17
2018-03-20T22:33:53.407Z,9.90
2018-03-20T22:36:20.993Z,10.43
2018-03-20T22:38:48.550Z,9.53
2018-03-20T22:41:16.181Z,9.10
2018-03-20T22:43:43.754Z,8.57
2018-03-20T22:46:11.314Z,9.93
2018-03-20T22:48:38.870Z,9.83
2018-03-20T22:51:06.413Z,9.20
2018-03-20T22:53:33.983Z,10.10
2018-03-20T22:56:01.576Z,9.00
2018-03-20T22:58:29.208Z,9.47
2018-03-20T23:00:56.769Z,8.63
2018-03-20T23:03:24.339Z,9.47
2018-03-20T23:05:51.925Z,9.07
2018-03-20T23:08:19.521Z,9.20
2018-03-20T23:10:47.113Z,10.03
2018-03-20T23:13:14.652Z,8.83
2018-03-20T23:15:42.195Z,9.00
2018-03-20T23:18:09.754Z,9.00
2018-03-20T23:20:37.284Z,9.07
2018-03-20T23:23:05.669Z,9.37
2018-03-20T23:25:33.972Z,8.80
2018-03-20T23:28:01.668Z,9.40
2018-03-20T23:30:29.227Z,9.10
2018-03-20T23:32:56.791Z,8.80
2018-03-20T23:35:24.330Z,9.10
2018-03-20T23:37:51.886Z,8.77
2018-03-20T23:40:19.425Z,8.40
2018-03-20T23:42:47.029Z,7.83
2018-03-20T23:45:14.565Z,7.33
2018-03-20T23:47:42.141Z,6.90
2018-03-20T23:50:09.674Z,6.60
2018-03-20T23:52:37.202Z,7.23
2018-03-20T23:55:04.792Z,6.17
2018-03-20T23:57:32.360Z,7.03
2018-03-20T23:59:59.890Z,6.63
